Eastpointe, West Virginia
Current Conditions -  °F | °C
As of 7:53 AM on Monday 22 Dec 2014 (Local Time) from KCKB Reporting Station
Haze Haze  
Wind Chill: 27°   Ceiling: 4000
Heat Index: 27°   Visibility: 5mi
Dew Point: 24°   Wind: 0mph
Humidity: 89%   Direction: NA
Pressure: 30.11"   Gusts: NA
Location:  39.2808°N, 80.3447°W
Report Text: KCKB 221253Z 00000KT 5SM BR OVC040 M03/M04 A3011 RMK AO2 SLP204 T10281044
Loading
Personal Weather Stations






























Interactive Weather Map New forecast layout! Learn more

10-Day Weather Forecast

Advertisements
Track Severe Weather on mobile